createdAt,value
2022-11-08T00:00:00.266Z,10.90
2022-11-08T00:02:28.279Z,10.81
2022-11-08T00:04:57.317Z,10.73
2022-11-08T00:07:42.397Z,10.24
2022-11-08T00:10:28.972Z,10.36
2022-11-08T00:13:15.298Z,10.21
2022-11-08T00:15:43.119Z,9.86
2022-11-08T00:18:10.673Z,10.04
2022-11-08T00:20:39.729Z,10.12
2022-11-08T00:23:08.286Z,10.19
2022-11-08T00:25:35.893Z,10.04
2022-11-08T00:28:03.425Z,10.16
2022-11-08T00:30:30.987Z,10.09
2022-11-08T00:32:58.743Z,10.07
2022-11-08T00:35:26.371Z,10.10
2022-11-08T00:37:55.432Z,9.84
2022-11-08T00:40:24.114Z,9.74
2022-11-08T00:42:51.609Z,9.83
2022-11-08T00:45:19.362Z,9.77
2022-11-08T00:47:48.001Z,9.99
2022-11-08T00:50:15.969Z,10.04
2022-11-08T00:52:43.541Z,10.03
2022-11-08T00:55:12.841Z,9.98
2022-11-08T00:57:58.333Z,10.01
2022-11-08T01:00:27.075Z,9.96
2022-11-08T01:03:09.412Z,10.22
2022-11-08T01:05:38.377Z,10.10
2022-11-08T01:08:05.950Z,10.11
2022-11-08T01:10:35.264Z,10.05
2022-11-08T01:13:02.947Z,9.94
2022-11-08T01:15:35.656Z,9.86
2022-11-08T01:18:03.308Z,10.06
2022-11-08T01:20:30.823Z,9.91
2022-11-08T01:22:58.754Z,10.04
2022-11-08T01:25:26.540Z,9.76
2022-11-08T01:27:55.438Z,9.84
2022-11-08T01:30:23.535Z,9.64
2022-11-08T01:32:51.240Z,9.97
2022-11-08T01:35:18.790Z,9.85
2022-11-08T01:37:46.367Z,9.74
2022-11-08T01:40:15.084Z,9.66
2022-11-08T01:42:42.604Z,9.69
2022-11-08T01:45:12.687Z,9.67
2022-11-08T01:47:40.386Z,9.73
2022-11-08T01:50:09.646Z,9.65
2022-11-08T01:52:38.898Z,9.62
2022-11-08T01:55:14.126Z,9.89
2022-11-08T01:57:45.569Z,9.89
2022-11-08T02:00:15.330Z,9.88
2022-11-08T02:02:48.002Z,9.99
2022-11-08T02:05:26.579Z,10.18
2022-11-08T02:07:57.701Z,10.35
2022-11-08T02:10:31.286Z,10.36
2022-11-08T02:13:03.747Z,10.42
2022-11-08T02:15:34.061Z,10.49
2022-11-08T02:18:02.022Z,10.47
2022-11-08T02:20:29.636Z,10.46
2022-11-08T02:23:01.571Z,10.29
2022-11-08T02:25:30.524Z,10.19
2022-11-08T02:27:58.087Z,10.11
2022-11-08T02:30:26.594Z,10.16
2022-11-08T02:32:55.188Z,10.20
2022-11-08T02:35:22.922Z,10.20
2022-11-08T02:37:50.525Z,10.24
2022-11-08T02:40:18.176Z,10.22
2022-11-08T02:42:47.188Z,10.24
2022-11-08T02:45:14.840Z,10.11
2022-11-08T02:47:42.389Z,9.98
2022-11-08T02:50:10.920Z,10.05
2022-11-08T02:52:39.222Z,10.05
2022-11-08T02:55:07.493Z,10.01
2022-11-08T02:57:35.701Z,9.81
2022-11-08T03:00:05.607Z,9.51
2022-11-08T03:02:33.339Z,9.58
2022-11-08T03:05:01.303Z,9.47
2022-11-08T03:07:28.771Z,9.35
2022-11-08T03:09:56.393Z,9.51
2022-11-08T03:12:23.987Z,9.33
2022-11-08T03:14:51.676Z,9.20
2022-11-08T03:17:20.617Z,9.05
2022-11-08T03:19:48.112Z,8.92
2022-11-08T03:22:16.574Z,8.91
2022-11-08T03:24:44.158Z,8.87
2022-11-08T03:27:14.085Z,8.88
2022-11-08T03:29:41.747Z,8.72
2022-11-08T03:32:10.402Z,8.82
2022-11-08T03:34:39.554Z,8.83
2022-11-08T03:37:07.460Z,8.79
2022-11-08T03:39:37.005Z,8.63
2022-11-08T03:42:04.943Z,8.58
2022-11-08T03:44:33.155Z,8.78
2022-11-08T03:47:01.141Z,8.63
2022-11-08T03:49:29.238Z,8.77
2022-11-08T03:51:58.249Z,8.38
2022-11-08T03:54:25.795Z,8.68
2022-11-08T03:56:53.343Z,8.40
2022-11-08T03:59:21.044Z,8.78
2022-11-08T04:01:48.876Z,8.52
2022-11-08T04:04:16.453Z,8.58
2022-11-08T04:06:44.045Z,8.87
2022-11-08T04:09:14.739Z,8.82
2022-11-08T04:12:17.485Z,8.82
2022-11-08T04:15:03.098Z,8.62
2022-11-08T04:17:44.547Z,8.53
2022-11-08T04:20:29.914Z,8.46
2022-11-08T04:22:57.624Z,8.52
2022-11-08T04:25:29.978Z,8.40
2022-11-08T04:28:00.179Z,8.63
2022-11-08T04:30:27.838Z,8.66
2022-11-08T04:32:57.199Z,8.42
2022-11-08T04:35:25.095Z,8.37
2022-11-08T04:37:52.626Z,8.52
2022-11-08T04:40:20.337Z,8.81
2022-11-08T04:42:49.338Z,8.74
2022-11-08T04:45:17.373Z,8.63
2022-11-08T04:47:48.429Z,8.53
2022-11-08T04:50:16.891Z,8.55
2022-11-08T04:52:44.555Z,8.61
2022-11-08T04:55:12.657Z,8.57
2022-11-08T04:57:40.226Z,8.83
2022-11-08T05:00:11.748Z,8.71
2022-11-08T05:02:39.628Z,8.89
2022-11-08T05:05:08.468Z,8.84
2022-11-08T05:07:36.201Z,8.89
2022-11-08T05:10:04.276Z,9.17
2022-11-08T05:12:32.043Z,8.98
2022-11-08T05:15:00.159Z,8.98
2022-11-08T05:17:29.509Z,9.16
2022-11-08T05:20:29.476Z,9.17
2022-11-08T05:23:19.372Z,9.08
2022-11-08T05:25:47.605Z,9.07
2022-11-08T05:28:15.710Z,9.02
2022-11-08T05:30:43.698Z,9.33
2022-11-08T05:33:15.897Z,9.16
2022-11-08T05:35:43.376Z,9.17
2022-11-08T05:38:10.964Z,9.14
2022-11-08T05:40:38.460Z,9.35
2022-11-08T05:43:06.698Z,9.20
2022-11-08T05:45:34.427Z,9.40
2022-11-08T05:48:03.775Z,9.15
2022-11-08T05:50:34.378Z,9.07
2022-11-08T05:53:02.243Z,8.98
2022-11-08T05:55:30.038Z,9.07
2022-11-08T05:57:57.840Z,9.04
2022-11-08T06:00:26.357Z,8.88
2022-11-08T06:02:53.981Z,8.85
2022-11-08T06:05:22.625Z,8.85
2022-11-08T06:07:53.908Z,8.93
2022-11-08T06:10:23.464Z,9.16
2022-11-08T06:12:51.032Z,9.13
2022-11-08T06:15:19.721Z,9.12
2022-11-08T06:17:48.373Z,9.13
2022-11-08T06:20:16.622Z,9.14
2022-11-08T06:22:45.047Z,9.27
2022-11-08T06:25:13.983Z,9.27
2022-11-08T06:27:42.739Z,9.18
2022-11-08T06:30:11.092Z,9.36
2022-11-08T06:32:38.845Z,9.39
2022-11-08T06:35:07.447Z,9.30
2022-11-08T06:37:34.983Z,9.33
2022-11-08T06:40:02.570Z,9.47
2022-11-08T06:42:32.615Z,9.41
2022-11-08T06:45:00.343Z,9.39
2022-11-08T06:47:28.024Z,9.42
2022-11-08T06:49:55.593Z,9.61
2022-11-08T06:52:23.316Z,9.71
2022-11-08T06:54:52.002Z,9.77
2022-11-08T06:57:19.540Z,9.89
2022-11-08T06:59:48.486Z,9.88
2022-11-08T07:02:17.200Z,9.83
2022-11-08T07:04:45.101Z,9.89
2022-11-08T07:07:12.620Z,10.11
2022-11-08T07:09:40.205Z,9.98
2022-11-08T07:12:07.848Z,10.18
2022-11-08T07:14:35.966Z,10.12
2022-11-08T07:17:05.071Z,10.12
2022-11-08T07:19:32.701Z,10.25
2022-11-08T07:22:00.428Z,10.37
2022-11-08T07:24:28.045Z,10.37
2022-11-08T07:26:56.286Z,10.46
2022-11-08T07:29:23.790Z,10.47
2022-11-08T07:31:51.566Z,10.49
2022-11-08T07:34:20.723Z,10.50
2022-11-08T07:36:48.558Z,10.51
2022-11-08T07:39:16.236Z,10.57
2022-11-08T07:41:44.545Z,10.53
2022-11-08T07:44:12.072Z,10.65
2022-11-08T07:46:39.943Z,10.61
2022-11-08T07:49:07.671Z,10.83
2022-11-08T07:51:36.811Z,10.84
2022-11-08T07:54:04.581Z,10.94
2022-11-08T07:56:32.257Z,10.99
2022-11-08T07:59:00.088Z,11.02
2022-11-08T08:01:28.772Z,10.98
2022-11-08T08:03:56.329Z,11.04
2022-11-08T08:06:24.324Z,11.09
2022-11-08T08:08:53.510Z,11.03
2022-11-08T08:11:21.467Z,11.00
2022-11-08T08:13:49.297Z,11.22
2022-11-08T08:16:16.886Z,11.22
2022-11-08T08:18:45.031Z,11.36
2022-11-08T08:21:12.555Z,11.38
2022-11-08T08:23:40.130Z,11.41
2022-11-08T08:26:09.036Z,11.39
2022-11-08T08:28:38.599Z,11.41
2022-11-08T08:31:06.750Z,11.71
2022-11-08T08:33:34.906Z,11.78
2022-11-08T08:36:02.682Z,11.76
2022-11-08T08:38:31.027Z,11.77
2022-11-08T08:41:00.105Z,11.81
2022-11-08T08:43:29.580Z,11.83
2022-11-08T08:45:59.961Z,11.74
2022-11-08T08:48:28.703Z,11.92
2022-11-08T08:50:56.501Z,12.06
2022-11-08T08:53:25.022Z,12.21
2022-11-08T08:55:53.522Z,12.27
2022-11-08T08:58:21.663Z,12.35
2022-11-08T09:03:38.423Z,12.58
2022-11-08T09:06:06.279Z,12.63
2022-11-08T09:08:33.816Z,12.63
2022-11-08T09:11:02.557Z,12.68
2022-11-08T09:13:31.765Z,12.67
2022-11-08T09:16:02.621Z,12.81
2022-11-08T09:18:30.494Z,12.80
2022-11-08T09:20:58.789Z,12.92
2022-11-08T09:23:26.777Z,13.00
2022-11-08T09:25:58.008Z,13.07
2022-11-08T09:28:30.764Z,13.11
2022-11-08T09:31:02.749Z,13.16
2022-11-08T09:33:30.696Z,13.38
2022-11-08T09:36:00.347Z,13.32
2022-11-08T09:38:28.191Z,13.46
2022-11-08T09:41:08.742Z,13.65
2022-11-08T09:43:48.266Z,13.83
2022-11-08T09:46:22.214Z,13.89
2022-11-08T09:48:50.296Z,13.98
2022-11-08T09:51:21.370Z,14.19
2022-11-08T09:53:53.518Z,14.07
2022-11-08T09:56:26.187Z,14.13
2022-11-08T09:58:55.283Z,14.37
2022-11-08T10:01:27.234Z,14.33
2022-11-08T10:03:56.742Z,14.40
2022-11-08T10:07:03.890Z,14.40
2022-11-08T10:09:43.791Z,14.54
2022-11-08T10:12:17.870Z,14.73
2022-11-08T10:15:02.386Z,14.92
2022-11-08T10:17:37.908Z,15.21
2022-11-08T10:20:11.696Z,15.24
2022-11-08T10:22:48.423Z,15.34
2022-11-08T10:25:23.033Z,15.38
2022-11-08T10:27:53.358Z,15.89
2022-11-08T10:30:22.319Z,15.75
2022-11-08T10:32:53.491Z,15.77
2022-11-08T10:35:25.616Z,15.86
2022-11-08T10:37:54.538Z,15.94
2022-11-08T10:40:32.670Z,15.86
2022-11-08T10:43:09.107Z,15.82
2022-11-08T10:45:38.374Z,15.76
2022-11-08T10:48:07.688Z,15.79
2022-11-08T10:50:43.057Z,15.89
2022-11-08T10:53:17.884Z,15.88
2022-11-08T10:55:52.634Z,16.08
2022-11-08T10:58:29.978Z,16.02
2022-11-08T11:01:03.814Z,16.04
2022-11-08T11:03:33.023Z,16.10
2022-11-08T11:06:03.714Z,16.12
2022-11-08T11:08:31.877Z,16.18
2022-11-08T11:11:22.800Z,16.16
2022-11-08T11:14:06.975Z,16.22
2022-11-08T11:16:37.220Z,16.15
2022-11-08T11:19:08.491Z,16.10
2022-11-08T11:21:40.355Z,16.07
2022-11-08T11:24:14.260Z,16.02
2022-11-08T11:26:46.997Z,15.96
2022-11-08T11:29:20.245Z,15.98
2022-11-08T11:31:49.697Z,16.04
2022-11-08T11:34:45.243Z,16.16
2022-11-08T11:37:20.250Z,15.99
2022-11-08T11:39:56.218Z,16.24
2022-11-08T11:42:45.010Z,16.00
2022-11-08T11:45:19.828Z,15.98
2022-11-08T11:47:53.706Z,16.02
2022-11-08T11:50:34.226Z,16.14
2022-11-08T11:53:04.752Z,16.20
2022-11-08T11:55:44.097Z,16.19
2022-11-08T11:58:24.772Z,16.42
2022-11-08T12:00:57.164Z,16.60
2022-11-08T12:03:35.946Z,16.50
2022-11-08T12:06:22.271Z,16.62
2022-11-08T12:09:01.992Z,16.52
2022-11-08T12:11:41.046Z,16.50
2022-11-08T12:14:18.677Z,16.47
2022-11-08T12:16:49.680Z,16.56
2022-11-08T12:19:27.881Z,16.36
2022-11-08T12:22:01.537Z,16.31
2022-11-08T12:24:38.321Z,16.21
2022-11-08T12:27:11.549Z,16.28
2022-11-08T12:29:45.997Z,16.40
2022-11-08T12:32:33.664Z,16.43
2022-11-08T12:35:15.225Z,16.21
2022-11-08T12:37:56.080Z,16.00
2022-11-08T12:40:28.671Z,16.12
2022-11-08T12:43:06.455Z,16.13
2022-11-08T12:45:51.039Z,16.05
2022-11-08T12:48:28.086Z,15.96
2022-11-08T12:51:04.256Z,15.97
2022-11-08T12:53:42.917Z,16.02
2022-11-08T12:56:14.689Z,16.01
2022-11-08T12:58:44.330Z,15.98
2022-11-08T13:01:14.055Z,16.00
2022-11-08T13:04:10.172Z,16.06
2022-11-08T13:06:43.232Z,15.99
2022-11-08T13:09:18.904Z,15.78
2022-11-08T13:11:51.170Z,15.64
2022-11-08T13:14:19.861Z,15.79
2022-11-08T13:17:17.679Z,15.74
2022-11-08T13:20:01.949Z,15.73
2022-11-08T13:22:44.114Z,15.73
2022-11-08T13:25:41.392Z,15.68
2022-11-08T13:28:40.718Z,15.76
2022-11-08T13:31:30.793Z,15.73
2022-11-08T13:34:40.219Z,15.93
2022-11-08T13:37:52.187Z,16.05
2022-11-08T13:40:40.575Z,16.12
2022-11-08T13:43:24.371Z,15.94
2022-11-08T13:45:52.020Z,15.95
2022-11-08T13:48:37.514Z,15.73
2022-11-08T13:51:26.088Z,15.68
2022-11-08T13:53:57.896Z,15.57
2022-11-08T13:56:48.783Z,15.50
2022-11-08T13:59:59.093Z,15.42
2022-11-08T14:02:38.625Z,15.33
2022-11-08T14:05:26.882Z,15.36
2022-11-08T14:08:19.996Z,15.41
2022-11-08T14:11:24.941Z,15.29
2022-11-08T14:14:35.103Z,15.40
2022-11-08T14:17:15.457Z,15.44
2022-11-08T14:19:45.070Z,15.45
2022-11-08T14:22:16.887Z,15.37
2022-11-08T14:24:44.866Z,15.54
2022-11-08T14:27:14.527Z,15.45
2022-11-08T14:29:44.043Z,15.24
2022-11-08T14:32:18.781Z,15.34
2022-11-08T14:34:46.827Z,15.26
2022-11-08T14:37:20.203Z,15.08
2022-11-08T14:39:48.179Z,15.18
2022-11-08T14:42:22.232Z,14.99
2022-11-08T14:44:53.591Z,15.09
2022-11-08T14:47:26.179Z,14.97
2022-11-08T14:49:54.084Z,14.97
2022-11-08T14:52:25.696Z,15.15
2022-11-08T14:55:01.320Z,14.99
2022-11-08T14:57:35.451Z,14.88
2022-11-08T15:00:10.785Z,14.94
2022-11-08T15:02:38.796Z,14.90
2022-11-08T15:05:07.079Z,14.89
2022-11-08T15:07:35.037Z,14.89
2022-11-08T15:10:10.810Z,14.82
2022-11-08T15:12:41.799Z,14.74
2022-11-08T15:15:20.948Z,14.60
2022-11-08T15:18:09.013Z,14.69
2022-11-08T15:20:36.725Z,14.67
2022-11-08T15:23:23.261Z,14.68
2022-11-08T15:25:57.254Z,14.56
2022-11-08T15:28:26.564Z,14.57
2022-11-08T15:30:58.230Z,14.65
2022-11-08T15:33:27.378Z,14.56
2022-11-08T15:35:55.067Z,14.29
2022-11-08T15:38:29.536Z,14.33
2022-11-08T15:40:59.004Z,14.15
2022-11-08T15:43:41.396Z,14.37
2022-11-08T15:46:38.109Z,14.32
2022-11-08T15:49:16.633Z,14.26
2022-11-08T15:51:45.742Z,14.13
2022-11-08T15:54:14.069Z,14.27
2022-11-08T15:56:42.040Z,14.40
2022-11-08T15:59:20.900Z,14.45
2022-11-08T16:02:04.073Z,14.00
2022-11-08T16:04:31.729Z,14.09
2022-11-08T16:06:59.274Z,13.93
2022-11-08T16:09:26.838Z,14.02
2022-11-08T16:11:54.642Z,14.02
2022-11-08T16:14:24.826Z,14.07
2022-11-08T16:16:54.118Z,14.07
2022-11-08T16:19:23.402Z,14.02
2022-11-08T16:21:52.423Z,14.00
2022-11-08T16:24:20.368Z,14.05
2022-11-08T16:26:48.242Z,14.10
2022-11-08T16:29:22.142Z,13.97
2022-11-08T16:31:50.566Z,14.17
2022-11-08T16:34:21.110Z,14.15
2022-11-08T16:36:49.867Z,13.99
2022-11-08T16:39:19.264Z,14.06
2022-11-08T16:41:46.844Z,14.00
2022-11-08T16:44:14.485Z,13.88
2022-11-08T16:46:43.348Z,13.95
2022-11-08T16:49:21.010Z,13.97
2022-11-08T16:51:49.109Z,13.92
2022-11-08T16:54:19.596Z,13.87
2022-11-08T16:56:48.279Z,13.86
2022-11-08T16:59:15.858Z,13.91
2022-11-08T17:01:44.062Z,14.01
2022-11-08T17:04:12.408Z,13.96
2022-11-08T17:06:41.287Z,13.90
2022-11-08T17:09:09.434Z,13.85
2022-11-08T17:11:38.493Z,13.79
2022-11-08T17:14:06.424Z,13.86
2022-11-08T17:16:35.020Z,13.85
2022-11-08T17:19:04.134Z,13.90
2022-11-08T17:21:44.697Z,13.90
2022-11-08T17:24:20.844Z,13.95
2022-11-08T17:26:50.496Z,13.92
2022-11-08T17:29:18.082Z,14.16
2022-11-08T17:31:46.002Z,14.10
2022-11-08T17:34:13.693Z,14.17
2022-11-08T17:36:41.272Z,13.97
2022-11-08T17:39:09.394Z,14.06
2022-11-08T17:41:39.183Z,13.74
2022-11-08T17:44:06.780Z,13.98
2022-11-08T17:46:35.431Z,13.74
2022-11-08T17:49:03.122Z,13.96
2022-11-08T17:51:31.152Z,13.76
2022-11-08T17:53:58.681Z,13.88
2022-11-08T17:56:26.455Z,13.44
2022-11-08T17:58:58.171Z,13.43
2022-11-08T18:01:26.113Z,13.57
2022-11-08T18:03:54.145Z,13.72
2022-11-08T18:06:21.922Z,13.57
2022-11-08T18:08:51.316Z,13.76
2022-11-08T18:11:18.894Z,13.79
2022-11-08T18:13:46.943Z,13.72
2022-11-08T18:16:17.492Z,13.67
2022-11-08T18:18:46.843Z,13.54
2022-11-08T18:21:15.582Z,13.63
2022-11-08T18:23:45.217Z,13.45
2022-11-08T18:26:13.930Z,13.63
2022-11-08T18:28:42.649Z,13.72
2022-11-08T18:31:12.376Z,13.79
2022-11-08T18:33:41.975Z,13.90
2022-11-08T18:36:11.565Z,13.79
2022-11-08T18:38:44.584Z,13.93
2022-11-08T18:41:13.482Z,13.93
2022-11-08T18:43:41.322Z,14.12
2022-11-08T18:46:13.256Z,13.94
2022-11-08T18:48:42.429Z,13.94
2022-11-08T18:51:12.658Z,13.86
2022-11-08T18:53:41.036Z,13.78
2022-11-08T18:56:09.609Z,13.56
2022-11-08T18:58:37.260Z,13.95
2022-11-08T19:01:05.726Z,13.74
2022-11-08T19:03:34.530Z,13.72
2022-11-08T19:06:03.493Z,13.68
2022-11-08T19:08:31.617Z,13.81
2022-11-08T19:11:01.078Z,14.07
2022-11-08T19:13:30.248Z,14.10
2022-11-08T19:15:58.793Z,13.87
2022-11-08T19:18:27.201Z,13.99
2022-11-08T19:20:56.341Z,13.88
2022-11-08T19:23:26.160Z,14.06
2022-11-08T19:25:57.874Z,13.92
2022-11-08T19:28:29.048Z,13.97
2022-11-08T19:30:59.281Z,13.95
2022-11-08T19:33:28.891Z,14.00
2022-11-08T19:35:56.731Z,13.99
2022-11-08T19:38:25.714Z,13.96
2022-11-08T19:40:53.524Z,14.22
2022-11-08T19:43:21.636Z,13.92
2022-11-08T19:45:54.270Z,14.01
2022-11-08T19:48:22.241Z,14.00
2022-11-08T19:50:50.693Z,13.84
2022-11-08T19:53:18.456Z,13.97
2022-11-08T19:55:47.396Z,13.82
2022-11-08T19:58:15.520Z,13.72
2022-11-08T20:00:43.872Z,13.90
2022-11-08T20:03:11.525Z,13.75
2022-11-08T20:05:39.057Z,14.05
2022-11-08T20:08:08.525Z,14.11
2022-11-08T20:10:37.862Z,13.78
2022-11-08T20:13:08.835Z,13.87
2022-11-08T20:15:36.540Z,13.83
2022-11-08T20:18:04.373Z,13.75
2022-11-08T20:20:32.328Z,13.62
2022-11-08T20:23:00.938Z,13.67
2022-11-08T20:25:28.610Z,13.69
2022-11-08T20:27:56.140Z,13.40
2022-11-08T20:30:25.360Z,13.66
2022-11-08T20:32:53.162Z,13.72
2022-11-08T20:35:23.559Z,13.41
2022-11-08T20:37:51.505Z,13.34
2022-11-08T20:40:19.350Z,13.47
2022-11-08T20:42:47.702Z,13.45
2022-11-08T20:45:15.511Z,13.55
2022-11-08T20:47:44.515Z,13.38
2022-11-08T20:50:12.160Z,13.56
2022-11-08T20:52:40.737Z,13.52
2022-11-08T20:55:09.058Z,13.53
2022-11-08T20:57:36.605Z,13.41
2022-11-08T21:00:13.120Z,13.53
2022-11-08T21:02:41.391Z,13.41
2022-11-08T21:05:10.662Z,13.13
2022-11-08T21:08:01.841Z,13.50
2022-11-08T21:10:42.214Z,13.48
2022-11-08T21:13:11.141Z,13.24
2022-11-08T21:15:38.973Z,13.22
2022-11-08T21:18:06.557Z,13.20
2022-11-08T21:20:35.587Z,13.10
2022-11-08T21:23:03.147Z,13.21
2022-11-08T21:25:31.806Z,13.21
2022-11-08T21:27:59.931Z,13.05
2022-11-08T21:30:28.209Z,13.04
2022-11-08T21:32:55.769Z,12.91
2022-11-08T21:35:23.535Z,12.76
2022-11-08T21:37:52.783Z,13.00
2022-11-08T21:40:20.297Z,13.07
2022-11-08T21:42:49.012Z,12.95
2022-11-08T21:45:17.107Z,12.69
2022-11-08T21:47:44.726Z,12.77
2022-11-08T21:50:13.566Z,13.04
2022-11-08T21:52:41.447Z,13.07
2022-11-08T21:55:11.705Z,13.38
2022-11-08T21:57:39.418Z,13.33
2022-11-08T22:00:09.242Z,12.95
2022-11-08T22:02:37.065Z,13.10
2022-11-08T22:05:05.432Z,13.15
2022-11-08T22:07:33.287Z,13.28
2022-11-08T22:10:01.364Z,13.18
2022-11-08T22:12:30.467Z,13.23
2022-11-08T22:14:58.330Z,13.11
2022-11-08T22:17:25.915Z,13.32
2022-11-08T22:19:53.920Z,13.44
2022-11-08T22:22:22.735Z,13.35
2022-11-08T22:24:51.119Z,13.22
2022-11-08T22:27:19.685Z,13.35
2022-11-08T22:29:51.526Z,13.28
2022-11-08T22:32:19.940Z,13.08
2022-11-08T22:34:47.488Z,13.18
2022-11-08T22:37:15.041Z,13.13
2022-11-08T22:39:42.855Z,13.36
2022-11-08T22:42:10.518Z,13.40
2022-11-08T22:44:38.047Z,13.45
2022-11-08T22:47:07.080Z,13.34
2022-11-08T22:49:34.875Z,13.23
2022-11-08T22:52:02.457Z,13.35
2022-11-08T22:54:30.043Z,13.26
2022-11-08T22:56:57.910Z,12.75
2022-11-08T22:59:25.506Z,13.22
2022-11-08T23:01:53.112Z,13.46
2022-11-08T23:04:22.075Z,13.43
2022-11-08T23:06:49.716Z,13.54
2022-11-08T23:09:17.255Z,13.79
2022-11-08T23:12:02.961Z,13.77
2022-11-08T23:14:47.920Z,13.81
2022-11-08T23:17:15.599Z,13.76
2022-11-08T23:20:02.282Z,13.63
2022-11-08T23:22:47.360Z,13.62
2022-11-08T23:25:15.189Z,13.72
2022-11-08T23:28:00.433Z,13.65
2022-11-08T23:30:45.833Z,13.73
2022-11-08T23:33:13.459Z,13.69
2022-11-08T23:36:02.859Z,13.79
2022-11-08T23:38:30.923Z,13.81
2022-11-08T23:41:17.539Z,13.80
2022-11-08T23:44:02.731Z,13.82
2022-11-08T23:46:30.478Z,13.76
2022-11-08T23:48:58.448Z,13.72
2022-11-08T23:51:27.927Z,13.86
2022-11-08T23:53:55.486Z,13.70
2022-11-08T23:56:24.150Z,13.81
2022-11-08T23:58:52.082Z,13.87
